Hauptseite
METAR-TAF:

METAR-TAF

Flughäfen :

Valley, Wales

Breite: 53-15N, Länge: 004-32W, Höhe: 1 m

Beobachtung

Neuester Wetterbericht von vor 1 Stunde und 3 Minuten, um 17:50 UTC
Wind 13 kt aus Süd/Südwest
Temperatur 16°C
Luftfeuchtigkeit 88%
Luftdruck 1006 hPa
Sichtweite 10 km oder mehr

METAR: EGOV 251750Z AUTO 21013KT 9999 // FEW054/// 16/14 Q1006

Zeit: 19:53 (18:53 UTC)

Prognose

Neuester Wetterbericht von vor 5 Stunden und 16 Minuten, um 13:37 UTC
Gültige Prognose vom 25 um 15 UTC bis 25 um 19 UTC
Wind 15 kt aus Süd/Südwest
Sichtweite 10 km oder mehr
Leicht bewölkt in der Höhe von 700 ft
Aufgelockert bewölkt in der Höhe von 3000 ft
Zeitweise
vom 25 um 15 UTC bis 25 um 19 UTC
Aufgelockert bewölkt in der Höhe von 2000 ft

TAF: EGOV 251337Z 2515/2519 20015KT 9999 FEW007 SCT030 TEMPO 2515/2519 SCT020

Wetterbeobachtungen und Prognosen von mehr als 4000 Flughäfen (METAR und TAF Bericht).

Die verfügbaren Stationen werden durch gelbe und rote Markierungen auf der Karte dargestellt.

Führen Sie die Maus auf sie, um den Namen der Station zu sehen.

Darauf klicken, um die Beobachtung von Wetterbeobachtungen und Prognosen zu sehen.

Um die Karte zu ändern : klicken Sie auf den grünen Tasten mit einem schwarzen Kreuz Zum Vergrößern, auf den grünen Button mit einem Gedankenstrich zu verkleinern, oder auf die grünen Pfeile für benachbarte Karten.


METAR-TAF: